Farmingdale, New York
Current Conditions -  °F | °C
As of 11:53 PM on Thursday 27 Nov 2014 (Local Time) from KFRG Reporting Station
Overcast Overcast  
Wind Chill: -2°   Ceiling: 4600
Heat Index:   Visibility: 10mi
Dew Point: -3°   Wind: 12mph
Humidity: 70%   Direction: 330°NNW
Pressure: 30.05"   Gusts: NA
Location:  40.73°N, 73.44°W
Report Text: KFRG 280453Z AUTO 33010KT 10SM OVC046 02/M03 A3005 RMK AO2 SLP175 T00221028 400390022
Loading
Personal Weather Stations






























Interactive Weather Map New forecast layout! Learn more

10-Day Weather Forecast

Advertisements
Track Severe Weather on mobile